Time;durP1;ratioP1;P1;durP2;ratioP2;P2;SDS_P1;SDS_P2;PMS_P1;PMS_P2;Temp;Humidity;BMP_temperature;BMP_pressure;BME280_temperature;BME280_humidity;BME280_pressure;Samples;Min_cycle;Max_cycle;Signal;HPM_P1;HPM_P2
2022/05/09 00:01:59;;;;;;;10.32;1.95;;;;;;;;;;5059487;28;20036;-51
2022/05/09 00:04:25;;;;;;;8.48;2.05;;;;;;;;;;5068682;28;20040;-51
2022/05/09 00:06:51;;;;;;;7.18;2.00;;;;;;;;;;5070799;28;20032;-51
2022/05/09 00:09:18;;;;;;;5.60;2.20;;;;;;;;;;5069287;28;20028;-51
2022/05/09 00:11:44;;;;;;;9.50;2.40;;;;;;;;;;5068061;28;20029;-53
2022/05/09 00:14:10;;;;;;;10.95;1.85;;;;;;;;;;5068512;28;20029;-51
2022/05/09 00:16:36;;;;;;;13.35;2.40;;;;;;;;;;5065835;28;20024;-51
2022/05/09 00:19:07;;;;;;;5.78;2.10;;;;;;;;;;5067597;28;20036;-51
2022/05/09 00:21:34;;;;;;;9.48;2.22;;;;;;;;;;5067816;28;20153;-52
2022/05/09 00:24:00;;;;;;;6.38;2.30;;;;;;;;;;5056012;28;20024;-50
2022/05/09 00:26:32;;;;;;;6.57;2.00;;;;;;;;;;5062495;28;20040;-51
2022/05/09 00:28:59;;;;;;;6.22;2.10;;;;;;;;;;5067103;28;20025;-51
2022/05/09 00:31:26;;;;;;;7.03;1.92;;;;;;;;;;5063686;28;20492;-51
2022/05/09 00:33:52;;;;;;;11.55;2.78;;;;;;;;;;5057516;28;20028;-51
2022/05/09 00:36:18;;;;;;;6.65;2.05;;;;;;;;;;5051269;28;20446;-50
2022/05/09 00:38:45;;;;;;;7.85;2.50;;;;;;;;;;5055281;28;20032;-50
2022/05/09 00:43:57;;;;;;;8.32;2.05;;;;;;;;;;5072328;28;20400;-51
2022/05/09 00:46:23;;;;;;;11.35;2.70;;;;;;;;;;5059752;28;20056;-50
2022/05/09 00:48:49;;;;;;;6.72;2.45;;;;;;;;;;5062742;28;20028;-51
2022/05/09 00:51:23;;;;;;;9.57;2.70;;;;;;;;;;5068993;28;20025;-51
2022/05/09 00:53:50;;;;;;;11.50;2.67;;;;;;;;;;5065276;28;20442;-51
2022/05/09 00:56:20;;;;;;;6.47;2.30;;;;;;;;;;5061184;28;20106;-51
2022/05/09 00:58:50;;;;;;;5.88;1.98;;;;;;;;;;5064403;28;20111;-51
2022/05/09 01:01:17;;;;;;;7.40;2.53;;;;;;;;;;5055918;28;20436;-52
2022/05/09 01:03:51;;;;;;;8.88;2.42;;;;;;;;;;5061844;28;20036;-51
2022/05/09 01:06:17;;;;;;;8.32;2.35;;;;;;;;;;5063666;28;20118;-52
2022/05/09 01:08:43;;;;;;;10.02;3.20;;;;;;;;;;5065062;28;20031;-51
2022/05/09 01:11:16;;;;;;;8.00;2.65;;;;;;;;;;5069170;28;20020;-51
2022/05/09 01:13:45;;;;;;;6.25;2.10;;;;;;;;;;5064084;28;20044;-51
2022/05/09 01:16:11;;;;;;;7.22;2.67;;;;;;;;;;5054898;28;20459;-51
2022/05/09 01:18:38;;;;;;;4.90;1.77;;;;;;;;;;5070683;28;20041;-51
2022/05/09 01:21:23;;;;;;;8.07;2.28;;;;;;;;;;5063119;28;20047;-52
2022/05/09 01:23:49;;;;;;;4.97;1.80;;;;;;;;;;5068670;28;20500;-51
2022/05/09 01:26:15;;;;;;;7.40;1.92;;;;;;;;;;5066912;28;20035;-51
2022/05/09 01:28:41;;;;;;;6.13;2.65;;;;;;;;;;5067745;28;20020;-51
2022/05/09 01:31:10;;;;;;;10.50;2.40;;;;;;;;;;5055216;28;20033;-51
2022/05/09 01:33:38;;;;;;;5.97;2.30;;;;;;;;;;5065268;28;20638;-51
2022/05/09 01:36:15;;;;;;;5.47;2.60;;;;;;;;;;5064350;28;20024;-51
2022/05/09 01:38:51;;;;;;;9.93;2.53;;;;;;;;;;5058141;28;20035;-51
2022/05/09 01:41:17;;;;;;;6.93;2.33;;;;;;;;;;5066877;28;20131;-50
2022/05/09 01:43:51;;;;;;;7.28;2.55;;;;;;;;;;5064804;28;20099;-51
2022/05/09 01:46:27;;;;;;;8.32;2.40;;;;;;;;;;5063038;28;20036;-51
2022/05/09 01:51:39;;;;;;;8.43;2.38;;;;;;;;;;5060669;28;20182;-54
2022/05/09 01:54:06;;;;;;;5.53;1.83;;;;;;;;;;5071407;28;20021;-51
2022/05/09 01:56:33;;;;;;;8.18;2.47;;;;;;;;;;5058070;28;20021;-51
2022/05/09 01:59:00;;;;;;;11.07;3.10;;;;;;;;;;5061275;28;20440;-50
2022/05/09 02:01:27;;;;;;;5.72;2.33;;;;;;;;;;5060184;28;20074;-50
2022/05/09 02:03:54;;;;;;;8.55;2.75;;;;;;;;;;5063446;28;20043;-51
2022/05/09 02:06:23;;;;;;;8.30;3.13;;;;;;;;;;5059686;28;20773;-50
2022/05/09 02:08:49;;;;;;;10.32;2.58;;;;;;;;;;5068292;28;20455;-53
2022/05/09 02:11:15;;;;;;;6.22;2.72;;;;;;;;;;5055455;28;20058;-52
2022/05/09 02:13:41;;;;;;;6.40;2.53;;;;;;;;;;5066999;28;20483;-51
2022/05/09 02:16:08;;;;;;;6.20;2.60;;;;;;;;;;5067413;28;20103;-52
2022/05/09 02:18:34;;;;;;;8.50;2.67;;;;;;;;;;5064123;28;20037;-51
2022/05/09 02:21:00;;;;;;;9.20;2.88;;;;;;;;;;5055535;28;20484;-51
2022/05/09 02:23:26;;;;;;;9.75;2.65;;;;;;;;;;5064341;28;20037;-53
2022/05/09 02:25:53;;;;;;;5.57;2.47;;;;;;;;;;5060578;28;20484;-51
2022/05/09 02:28:21;;;;;;;5.55;2.55;;;;;;;;;;5065228;28;20025;-52
2022/05/09 02:30:47;;;;;;;7.63;2.50;;;;;;;;;;5058649;28;20033;-51
2022/05/09 02:33:13;;;;;;;7.30;2.33;;;;;;;;;;5066173;28;20381;-51
2022/05/09 02:35:40;;;;;;;8.60;3.15;;;;;;;;;;5067099;28;20442;-51
2022/05/09 02:38:06;;;;;;;10.35;3.25;;;;;;;;;;5061225;28;20028;-51
2022/05/09 02:40:36;;;;;;;12.65;3.83;;;;;;;;;;5069392;28;20024;-52
2022/05/09 02:43:02;;;;;;;9.57;3.25;;;;;;;;;;5062376;28;20028;-50
2022/05/09 02:45:28;;;;;;;6.88;2.70;;;;;;;;;;5065073;28;20040;-51
2022/05/09 02:47:55;;;;;;;9.18;3.17;;;;;;;;;;5069025;28;20033;-52
2022/05/09 02:50:22;;;;;;;9.52;3.00;;;;;;;;;;5075030;28;20024;-51
2022/05/09 02:52:49;;;;;;;8.80;2.72;;;;;;;;;;5069377;28;20032;-52
2022/05/09 02:55:15;;;;;;;11.10;3.88;;;;;;;;;;5065850;28;20028;-51
2022/05/09 02:57:41;;;;;;;11.15;3.03;;;;;;;;;;5066604;28;20327;-51
2022/05/09 03:00:13;;;;;;;8.43;3.15;;;;;;;;;;5068438;28;20060;-52
2022/05/09 03:02:39;;;;;;;5.72;2.67;;;;;;;;;;5055878;28;20043;-51
2022/05/09 03:05:07;;;;;;;6.80;2.15;;;;;;;;;;5060871;28;20392;-50
2022/05/09 03:07:33;;;;;;;7.10;2.95;;;;;;;;;;5063006;28;20029;-51
2022/05/09 03:09:59;;;;;;;6.82;2.88;;;;;;;;;;5060035;28;20044;-50
2022/05/09 03:12:25;;;;;;;8.77;3.10;;;;;;;;;;5063732;28;20029;-51
2022/05/09 03:14:51;;;;;;;10.25;2.63;;;;;;;;;;5061445;28;20032;-51
2022/05/09 03:17:17;;;;;;;8.90;2.95;;;;;;;;;;5062274;28;20029;-50
2022/05/09 03:19:43;;;;;;;11.38;2.70;;;;;;;;;;5062767;28;20053;-50
2022/05/09 03:22:09;;;;;;;9.50;3.05;;;;;;;;;;5065909;28;20105;-50
2022/05/09 03:24:36;;;;;;;5.35;2.33;;;;;;;;;;5079592;28;20036;-51
2022/05/09 03:27:03;;;;;;;7.45;2.97;;;;;;;;;;5065632;28;20487;-49
2022/05/09 03:29:30;;;;;;;9.45;3.08;;;;;;;;;;5062754;28;20032;-51
2022/05/09 03:31:56;;;;;;;11.40;3.15;;;;;;;;;;5070221;28;20028;-50
2022/05/09 03:34:22;;;;;;;3.47;2.22;;;;;;;;;;5063199;28;20025;-51
2022/05/09 03:36:48;;;;;;;8.90;2.80;;;;;;;;;;5069292;28;20025;-51
2022/05/09 03:39:14;;;;;;;11.02;3.33;;;;;;;;;;5066977;28;20025;-51
2022/05/09 03:41:40;;;;;;;10.27;3.20;;;;;;;;;;5072156;28;20400;-51
2022/05/09 03:44:06;;;;;;;5.80;2.83;;;;;;;;;;5071355;28;20028;-50
2022/05/09 03:46:33;;;;;;;10.30;3.63;;;;;;;;;;5080000;28;20086;-50
2022/05/09 03:49:01;;;;;;;6.82;2.40;;;;;;;;;;5068197;28;20028;-50
2022/05/09 03:51:27;;;;;;;10.18;3.45;;;;;;;;;;5060797;28;20383;-50
2022/05/09 03:53:53;;;;;;;6.40;3.10;;;;;;;;;;5062771;28;20020;-52
2022/05/09 03:56:19;;;;;;;9.95;3.58;;;;;;;;;;5061208;28;20503;-53
2022/05/09 03:58:45;;;;;;;7.70;3.20;;;;;;;;;;5066145;28;20037;-53
2022/05/09 04:01:11;;;;;;;7.03;2.90;;;;;;;;;;5060236;28;20036;-51
2022/05/09 04:03:38;;;;;;;9.02;2.97;;;;;;;;;;5055839;28;20028;-51
2022/05/09 04:06:04;;;;;;;9.40;2.72;;;;;;;;;;5066860;28;20021;-50
2022/05/09 04:08:30;;;;;;;6.80;2.78;;;;;;;;;;5055257;28;20526;-51
2022/05/09 04:10:56;;;;;;;7.10;3.00;;;;;;;;;;5069557;28;20031;-52
2022/05/09 04:13:22;;;;;;;12.82;2.88;;;;;;;;;;5073107;28;20029;-52
2022/05/09 04:18:38;;;;;;;8.95;3.58;;;;;;;;;;5057829;28;20051;-51
2022/05/09 04:21:05;;;;;;;8.30;3.13;;;;;;;;;;5066171;28;20052;-51
2022/05/09 04:23:31;;;;;;;6.28;2.67;;;;;;;;;;5053816;28;20071;-51
2022/05/09 04:25:57;;;;;;;7.88;2.90;;;;;;;;;;5058052;28;20071;-52
2022/05/09 04:28:23;;;;;;;6.35;2.90;;;;;;;;;;5065754;28;20029;-51
2022/05/09 04:30:50;;;;;;;5.75;2.75;;;;;;;;;;5066396;28;20038;-51
2022/05/09 04:33:16;;;;;;;7.82;3.33;;;;;;;;;;5071521;28;20023;-50
2022/05/09 04:35:42;;;;;;;12.85;3.00;;;;;;;;;;5076412;28;20036;-52
2022/05/09 04:38:13;;;;;;;9.18;3.78;;;;;;;;;;5062961;28;20033;-50
2022/05/09 04:40:40;;;;;;;11.13;3.10;;;;;;;;;;5071098;28;20031;-52
2022/05/09 04:43:06;;;;;;;11.98;3.75;;;;;;;;;;5053800;28;20510;-49
2022/05/09 04:45:33;;;;;;;9.35;3.05;;;;;;;;;;5052246;28;20036;-51
2022/05/09 04:47:59;;;;;;;9.13;3.10;;;;;;;;;;5061167;28;20028;-51
2022/05/09 04:50:26;;;;;;;6.78;3.30;;;;;;;;;;5064012;28;20024;-51
2022/05/09 04:52:52;;;;;;;8.82;3.13;;;;;;;;;;5060170;28;20079;-50
2022/05/09 04:55:19;;;;;;;9.90;4.18;;;;;;;;;;5061327;28;20140;-51
2022/05/09 04:57:45;;;;;;;8.25;3.85;;;;;;;;;;5052708;28;20050;-50
2022/05/09 05:00:15;;;;;;;8.18;3.65;;;;;;;;;;5061219;28;20033;-51
2022/05/09 05:02:41;;;;;;;8.52;4.18;;;;;;;;;;5080208;28;20032;-50
2022/05/09 05:05:09;;;;;;;11.38;4.28;;;;;;;;;;5069686;28;20087;-51
2022/05/09 05:07:35;;;;;;;11.02;4.35;;;;;;;;;;5054539;28;20428;-51
2022/05/09 05:10:01;;;;;;;10.90;4.72;;;;;;;;;;5068190;28;20028;-51
2022/05/09 05:12:27;;;;;;;12.88;4.55;;;;;;;;;;5067725;28;20017;-51
2022/05/09 05:14:53;;;;;;;16.52;4.60;;;;;;;;;;5065549;28;21483;-51
2022/05/09 05:17:19;;;;;;;14.68;4.38;;;;;;;;;;5055627;28;20033;-53
2022/05/09 05:19:45;;;;;;;10.88;4.25;;;;;;;;;;5058477;28;20139;-52
2022/05/09 05:22:15;;;;;;;15.88;5.10;;;;;;;;;;5055769;28;20044;-51
2022/05/09 05:24:43;;;;;;;14.20;4.95;;;;;;;;;;5064711;28;20055;-52
2022/05/09 05:27:09;;;;;;;15.23;4.57;;;;;;;;;;5058748;28;20029;-52
2022/05/09 05:29:35;;;;;;;14.23;4.68;;;;;;;;;;5065613;28;20033;-51
2022/05/09 05:32:02;;;;;;;10.45;4.53;;;;;;;;;;5067464;28;20055;-52
2022/05/09 05:34:28;;;;;;;12.07;4.50;;;;;;;;;;5064281;28;20033;-51
2022/05/09 05:36:54;;;;;;;13.95;4.30;;;;;;;;;;5061622;28;20036;-51
2022/05/09 05:39:20;;;;;;;13.85;4.28;;;;;;;;;;5059564;28;20072;-52
2022/05/09 05:41:46;;;;;;;11.48;4.88;;;;;;;;;;5051075;28;20025;-51
2022/05/09 05:44:13;;;;;;;10.23;4.05;;;;;;;;;;5055284;28;20029;-51
2022/05/09 05:46:40;;;;;;;11.13;4.32;;;;;;;;;;5057701;28;20025;-51
2022/05/09 05:49:06;;;;;;;10.65;4.25;;;;;;;;;;5055875;28;20032;-52
2022/05/09 05:51:32;;;;;;;11.60;4.65;;;;;;;;;;5049460;28;20643;-50
2022/05/09 05:53:58;;;;;;;9.32;4.55;;;;;;;;;;5053534;28;20024;-51
2022/05/09 05:56:24;;;;;;;15.60;4.78;;;;;;;;;;5057924;28;20519;-51
2022/05/09 05:58:50;;;;;;;9.80;4.45;;;;;;;;;;5056269;28;20078;-51
2022/05/09 06:01:17;;;;;;;11.50;4.35;;;;;;;;;;5054743;28;21709;-52
2022/05/09 06:03:43;;;;;;;13.32;4.35;;;;;;;;;;5053786;28;20175;-51
2022/05/09 06:06:09;;;;;;;13.13;4.47;;;;;;;;;;5053049;28;20050;-51
2022/05/09 06:08:38;;;;;;;8.40;4.78;;;;;;;;;;5053095;28;20369;-51
2022/05/09 06:11:07;;;;;;;11.35;4.57;;;;;;;;;;5048628;28;20414;-51
2022/05/09 06:13:33;;;;;;;7.80;3.72;;;;;;;;;;5053331;28;20032;-53
2022/05/09 06:15:59;;;;;;;9.85;4.13;;;;;;;;;;5054571;28;20074;-52
2022/05/09 06:18:25;;;;;;;14.23;4.75;;;;;;;;;;5056461;28;20378;-51
2022/05/09 06:20:52;;;;;;;8.98;4.53;;;;;;;;;;5032786;28;20044;-51
2022/05/09 06:23:18;;;;;;;11.30;4.65;;;;;;;;;;5050046;28;20081;-51
2022/05/09 06:25:46;;;;;;;10.35;4.38;;;;;;;;;;5052605;28;20119;-52
2022/05/09 06:28:14;;;;;;;9.45;3.88;;;;;;;;;;5052819;28;20105;-52
2022/05/09 06:30:40;;;;;;;10.27;4.65;;;;;;;;;;5052258;28;20480;-54
2022/05/09 06:33:06;;;;;;;11.50;4.18;;;;;;;;;;5052730;28;20075;-51
2022/05/09 06:35:33;;;;;;;7.32;4.13;;;;;;;;;;5053234;28;20072;-53
2022/05/09 06:38:03;;;;;;;8.73;4.30;;;;;;;;;;5050068;28;20035;-51
2022/05/09 06:40:31;;;;;;;12.32;3.70;;;;;;;;;;5052576;28;20082;-51
2022/05/09 06:42:57;;;;;;;7.97;3.78;;;;;;;;;;5053284;28;20043;-51
2022/05/09 06:45:24;;;;;;;9.98;3.78;;;;;;;;;;5052606;28;20032;-51
2022/05/09 06:47:51;;;;;;;8.88;3.80;;;;;;;;;;5058641;28;20060;-51
2022/05/09 06:50:18;;;;;;;10.02;3.25;;;;;;;;;;5051848;28;20421;-51
2022/05/09 06:52:44;;;;;;;9.68;3.60;;;;;;;;;;5053980;28;20031;-51
2022/05/09 06:55:11;;;;;;;9.55;3.50;;;;;;;;;;5053629;28;20032;-51
2022/05/09 06:57:38;;;;;;;11.80;3.75;;;;;;;;;;5054198;28;20028;-52
2022/05/09 07:00:06;;;;;;;10.98;4.13;;;;;;;;;;5057098;28;20440;-51
2022/05/09 07:02:31;;;;;;;8.40;3.83;;;;;;;;;;5052060;28;20485;-53
2022/05/09 07:04:57;;;;;;;7.82;3.42;;;;;;;;;;5056109;28;20032;-51
2022/05/09 07:07:23;;;;;;;4.68;2.83;;;;;;;;;;5065862;28;20369;-52
2022/05/09 07:09:50;;;;;;;7.75;3.53;;;;;;;;;;5060404;28;20396;-51
2022/05/09 07:12:16;;;;;;;13.10;3.95;;;;;;;;;;5061618;28;20025;-51
2022/05/09 07:14:42;;;;;;;6.90;3.28;;;;;;;;;;5059021;28;20396;-53
2022/05/09 07:17:08;;;;;;;8.77;3.55;;;;;;;;;;5065905;28;20028;-51
2022/05/09 07:19:35;;;;;;;10.25;3.70;;;;;;;;;;5068681;28;20061;-52
2022/05/09 07:22:01;;;;;;;8.55;3.45;;;;;;;;;;5063562;28;20052;-51
2022/05/09 07:24:27;;;;;;;11.75;3.65;;;;;;;;;;5055505;28;20650;-51
2022/05/09 07:26:53;;;;;;;8.27;3.65;;;;;;;;;;5054518;28;20021;-53
2022/05/09 07:29:19;;;;;;;15.38;3.55;;;;;;;;;;5054767;28;20083;-54
2022/05/09 07:31:45;;;;;;;13.80;3.58;;;;;;;;;;5050677;28;20032;-54
2022/05/09 07:34:11;;;;;;;7.47;3.80;;;;;;;;;;5054342;28;20032;-52
2022/05/09 07:36:37;;;;;;;7.15;3.30;;;;;;;;;;5055489;28;20481;-52
2022/05/09 07:39:03;;;;;;;9.82;3.55;;;;;;;;;;5057933;28;20083;-50
2022/05/09 07:41:31;;;;;;;6.95;2.95;;;;;;;;;;5051451;28;20037;-54
2022/05/09 07:43:57;;;;;;;6.20;3.03;;;;;;;;;;5057490;28;20111;-52
2022/05/09 07:46:23;;;;;;;9.43;3.10;;;;;;;;;;5058392;28;20384;-53
2022/05/09 07:48:50;;;;;;;8.82;3.10;;;;;;;;;;5054540;28;20032;-51
2022/05/09 07:51:17;;;;;;;10.13;3.60;;;;;;;;;;5064837;28;20594;-52
2022/05/09 07:53:43;;;;;;;9.40;3.42;;;;;;;;;;5054631;28;20916;-52
2022/05/09 07:56:09;;;;;;;7.07;3.30;;;;;;;;;;5054093;28;20025;-54
2022/05/09 07:58:35;;;;;;;6.28;3.22;;;;;;;;;;5060604;28;20476;-52
2022/05/09 08:01:02;;;;;;;6.93;3.50;;;;;;;;;;5063377;28;20039;-54
2022/05/09 08:03:29;;;;;;;7.97;3.33;;;;;;;;;;5064646;28;20020;-54
2022/05/09 08:06:00;;;;;;;6.20;3.70;;;;;;;;;;5058644;28;20765;-51
2022/05/09 08:08:28;;;;;;;5.90;3.15;;;;;;;;;;5056476;28;20029;-51
2022/05/09 08:10:55;;;;;;;7.10;3.42;;;;;;;;;;5056109;28;20051;-52
2022/05/09 08:13:21;;;;;;;13.25;3.90;;;;;;;;;;5055933;28;20849;-52
2022/05/09 08:15:48;;;;;;;9.68;3.13;;;;;;;;;;5053436;28;20029;-54
2022/05/09 08:18:14;;;;;;;7.20;2.88;;;;;;;;;;5055099;28;20056;-53
2022/05/09 08:20:44;;;;;;;18.08;3.30;;;;;;;;;;5058389;28;20472;-55
2022/05/09 08:23:11;;;;;;;6.43;3.22;;;;;;;;;;5053662;28;20032;-52
2022/05/09 08:25:39;;;;;;;10.52;3.83;;;;;;;;;;5053632;28;20037;-53
2022/05/09 08:28:05;;;;;;;12.43;3.75;;;;;;;;;;5054920;28;20107;-55
2022/05/09 08:30:35;;;;;;;10.70;3.55;;;;;;;;;;5055044;28;20787;-54
2022/05/09 08:33:02;;;;;;;9.00;2.95;;;;;;;;;;5053698;28;20031;-52
2022/05/09 08:35:28;;;;;;;10.02;3.58;;;;;;;;;;5055995;28;20043;-52
2022/05/09 08:37:55;;;;;;;4.80;3.17;;;;;;;;;;5054656;28;20571;-54
2022/05/09 08:40:25;;;;;;;5.97;2.80;;;;;;;;;;5053157;28;20039;-55
2022/05/09 08:42:58;;;;;;;5.00;2.55;;;;;;;;;;5053901;28;20040;-55
2022/05/09 08:45:26;;;;;;;7.55;3.20;;;;;;;;;;5055134;28;20559;-55
2022/05/09 08:48:04;;;;;;;8.98;3.42;;;;;;;;;;5053823;28;20032;-52
2022/05/09 08:50:30;;;;;;;14.32;3.25;;;;;;;;;;5057668;28;20083;-51
2022/05/09 08:53:00;;;;;;;9.73;3.53;;;;;;;;;;5062024;28;20016;-53
2022/05/09 08:55:28;;;;;;;7.57;3.25;;;;;;;;;;5061592;28;20032;-52
2022/05/09 08:58:20;;;;;;;7.38;3.35;;;;;;;;;;5057610;28;20035;-55
2022/05/09 09:00:49;;;;;;;8.68;3.17;;;;;;;;;;5033874;28;20132;-51
2022/05/09 09:03:34;;;;;;;6.75;2.90;;;;;;;;;;5055747;28;20059;-54
2022/05/09 09:06:12;;;;;;;9.63;3.33;;;;;;;;;;5038632;28;20044;-55
2022/05/09 09:08:58;;;;;;;11.57;3.10;;;;;;;;;;5056293;28;20029;-53
2022/05/09 09:11:37;;;;;;;6.95;2.53;;;;;;;;;;5053957;28;20033;-53
2022/05/09 09:14:24;;;;;;;7.53;3.00;;;;;;;;;;5056019;28;20385;-55
2022/05/09 09:17:01;;;;;;;6.70;2.63;;;;;;;;;;5053280;28;20025;-52
2022/05/09 09:19:32;;;;;;;8.82;2.78;;;;;;;;;;5053601;28;20056;-54
2022/05/09 09:22:04;;;;;;;8.13;2.55;;;;;;;;;;5053821;28;20035;-52
2022/05/09 09:24:46;;;;;;;6.68;2.05;;;;;;;;;;5053389;28;20029;-53
2022/05/09 09:27:28;;;;;;;5.22;2.08;;;;;;;;;;5052934;28;20185;-52
2022/05/09 09:29:56;;;;;;;5.95;1.55;;;;;;;;;;5051830;28;20025;-53
2022/05/09 09:32:23;;;;;;;5.80;2.10;;;;;;;;;;5053215;28;20491;-52
2022/05/09 09:34:51;;;;;;;5.00;1.70;;;;;;;;;;5047620;28;20041;-54
2022/05/09 09:37:20;;;;;;;7.30;2.35;;;;;;;;;;5065157;28;20402;-51
2022/05/09 09:39:46;;;;;;;8.40;2.13;;;;;;;;;;5052911;28;20032;-53
2022/05/09 09:42:12;;;;;;;4.70;1.75;;;;;;;;;;5058306;28;20499;-51
2022/05/09 09:44:43;;;;;;;7.07;2.03;;;;;;;;;;5051855;28;20446;-51
2022/05/09 09:47:12;;;;;;;7.70;1.80;;;;;;;;;;5051827;28;20037;-55
2022/05/09 09:49:43;;;;;;;9.70;2.03;;;;;;;;;;5056137;28;20032;-52
2022/05/09 09:52:18;;;;;;;5.05;1.90;;;;;;;;;;5052096;28;20033;-54
2022/05/09 09:54:48;;;;;;;6.38;2.00;;;;;;;;;;5056224;28;20020;-51
2022/05/09 09:57:17;;;;;;;7.57;2.35;;;;;;;;;;5051554;28;20025;-55
2022/05/09 09:59:43;;;;;;;7.15;1.80;;;;;;;;;;5050460;28;20025;-52
2022/05/09 10:02:19;;;;;;;21.73;2.75;;;;;;;;;;5054190;28;20044;-52
2022/05/09 10:04:46;;;;;;;4.28;1.98;;;;;;;;;;5064636;28;20460;-52
2022/05/09 10:07:16;;;;;;;8.85;2.13;;;;;;;;;;5058032;28;20112;-53
2022/05/09 10:09:59;;;;;;;4.97;2.33;;;;;;;;;;5057877;28;20563;-53
2022/05/09 10:12:32;;;;;;;10.27;1.90;;;;;;;;;;5056588;28;20119;-51
2022/05/09 10:14:59;;;;;;;5.90;2.08;;;;;;;;;;5053433;28;20116;-55
2022/05/09 10:17:29;;;;;;;5.13;1.67;;;;;;;;;;5052432;28;20036;-52
2022/05/09 10:19:56;;;;;;;7.97;2.40;;;;;;;;;;5048603;28;20152;-52
2022/05/09 10:25:24;;;;;;;6.47;1.80;;;;;;;;;;5053580;28;20047;-53
2022/05/09 10:28:10;;;;;;;5.32;1.70;;;;;;;;;;5050975;28;20458;-51
2022/05/09 10:30:38;;;;;;;5.43;1.35;;;;;;;;;;5051525;28;20025;-52
2022/05/09 10:33:08;;;;;;;6.60;2.08;;;;;;;;;;5052744;28;20495;-52
2022/05/09 10:35:36;;;;;;;4.93;1.80;;;;;;;;;;5060158;28;20046;-52
2022/05/09 10:38:04;;;;;;;6.72;1.90;;;;;;;;;;5054454;28;20600;-53
2022/05/09 10:40:32;;;;;;;7.10;1.80;;;;;;;;;;5052680;28;20060;-54
2022/05/09 10:43:27;;;;;;;3.33;1.88;;;;;;;;;;5055685;28;20036;-54
2022/05/09 10:45:54;;;;;;;9.73;2.05;;;;;;;;;;5038470;28;20059;-54
2022/05/09 10:48:36;;;;;;;7.47;1.92;;;;;;;;;;5052000;28;20134;-52
2022/05/09 10:51:05;;;;;;;3.00;1.30;;;;;;;;;;5043553;28;20036;-55
2022/05/09 10:53:40;;;;;;;6.20;1.55;;;;;;;;;;5052589;28;20037;-55
2022/05/09 10:56:25;;;;;;;6.25;1.73;;;;;;;;;;5054779;28;20694;-55
2022/05/09 10:59:01;;;;;;;7.78;2.22;;;;;;;;;;5049127;28;20029;-52
2022/05/09 11:01:39;;;;;;;4.38;1.42;;;;;;;;;;5050882;28;20034;-52
2022/05/09 11:04:05;;;;;;;3.47;1.58;;;;;;;;;;5051944;28;20039;-53
2022/05/09 11:06:31;;;;;;;3.92;1.52;;;;;;;;;;5057473;28;20032;-54
2022/05/09 11:09:06;;;;;;;12.35;1.92;;;;;;;;;;5055181;28;20025;-51
2022/05/09 11:11:42;;;;;;;5.57;1.45;;;;;;;;;;5053940;28;20025;-54
2022/05/09 11:14:14;;;;;;;6.65;1.70;;;;;;;;;;5058536;28;20048;-56
2022/05/09 11:17:10;;;;;;;3.35;1.48;;;;;;;;;;5057762;28;20040;-55
2022/05/09 11:19:48;;;;;;;6.13;1.52;;;;;;;;;;5057403;28;20063;-55
2022/05/09 11:22:23;;;;;;;6.05;1.50;;;;;;;;;;5057611;28;21195;-57
2022/05/09 11:25:02;;;;;;;3.92;1.73;;;;;;;;;;5058708;28;20489;-55
2022/05/09 11:27:40;;;;;;;3.35;1.52;;;;;;;;;;5055379;28;20073;-54
2022/05/09 11:30:17;;;;;;;5.20;1.48;;;;;;;;;;5054129;28;20041;-56
2022/05/09 11:32:44;;;;;;;6.95;1.95;;;;;;;;;;5068462;28;20027;-55
2022/05/09 11:35:13;;;;;;;3.70;1.65;;;;;;;;;;5058227;28;20032;-56
2022/05/09 11:37:43;;;;;;;4.30;1.40;;;;;;;;;;5053836;28;20076;-55
2022/05/09 11:40:09;;;;;;;5.50;1.73;;;;;;;;;;5062636;28;20041;-55
2022/05/09 11:45:50;;;;;;;3.22;1.13;;;;;;;;;;5068290;28;20474;-54
2022/05/09 11:48:19;;;;;;;9.25;1.70;;;;;;;;;;5066100;28;20249;-56
2022/05/09 11:51:01;;;;;;;4.70;1.40;;;;;;;;;;5068273;28;20028;-56
2022/05/09 11:53:28;;;;;;;3.47;1.30;;;;;;;;;;5066466;28;20127;-55
2022/05/09 11:55:55;;;;;;;2.65;1.23;;;;;;;;;;5055445;28;20624;-55
2022/05/09 11:58:21;;;;;;;4.70;1.58;;;;;;;;;;5057576;28;20078;-56
2022/05/09 12:00:48;;;;;;;2.55;1.33;;;;;;;;;;5065861;28;20025;-54
2022/05/09 12:03:15;;;;;;;3.33;1.17;;;;;;;;;;5055868;28;20033;-56
2022/05/09 12:05:44;;;;;;;5.28;1.58;;;;;;;;;;5066840;28;20025;-57
2022/05/09 12:08:20;;;;;;;8.20;1.17;;;;;;;;;;5068622;28;20037;-57
2022/05/09 12:10:50;;;;;;;4.90;1.67;;;;;;;;;;5055109;28;20046;-56
2022/05/09 12:13:20;;;;;;;6.85;1.42;;;;;;;;;;5050935;28;20025;-55
2022/05/09 12:15:56;;;;;;;4.32;1.60;;;;;;;;;;5061074;28;20040;-55
2022/05/09 12:18:26;;;;;;;3.65;1.23;;;;;;;;;;5058191;28;20051;-54
2022/05/09 12:20:53;;;;;;;3.38;1.10;;;;;;;;;;5060617;28;20052;-54
2022/05/09 12:23:37;;;;;;;4.88;1.27;;;;;;;;;;5060843;28;20032;-55
2022/05/09 12:26:05;;;;;;;2.40;1.10;;;;;;;;;;5059826;28;20384;-56
2022/05/09 12:28:35;;;;;;;4.25;1.15;;;;;;;;;;5063592;28;20025;-56
2022/05/09 12:31:04;;;;;;;3.22;1.25;;;;;;;;;;5062642;28;20077;-55
2022/05/09 12:33:33;;;;;;;3.00;1.00;;;;;;;;;;5059877;28;20029;-53
2022/05/09 12:36:03;;;;;;;2.50;0.73;;;;;;;;;;5057240;28;20067;-55
2022/05/09 12:38:33;;;;;;;6.20;1.60;;;;;;;;;;5064920;28;20488;-55
2022/05/09 12:41:01;;;;;;;1.85;1.00;;;;;;;;;;5058438;28;20025;-53
2022/05/09 12:43:28;;;;;;;2.67;0.90;;;;;;;;;;5058528;28;20071;-54
2022/05/09 12:45:54;;;;;;;4.47;1.00;;;;;;;;;;5062626;28;20116;-55
2022/05/09 12:48:20;;;;;;;5.43;1.33;;;;;;;;;;5064631;28;20036;-53
2022/05/09 12:50:47;;;;;;;6.13;1.10;;;;;;;;;;5066941;28;20074;-54
2022/05/09 12:53:15;;;;;;;4.22;1.45;;;;;;;;;;5069706;28;20078;-54
2022/05/09 12:55:52;;;;;;;5.05;1.25;;;;;;;;;;5062760;28;20040;-55
2022/05/09 12:58:41;;;;;;;2.65;0.70;;;;;;;;;;5055925;28;20064;-55
2022/05/09 13:01:09;;;;;;;7.60;1.20;;;;;;;;;;5048106;28;20036;-55
2022/05/09 13:03:42;;;;;;;1.90;0.95;;;;;;;;;;5060042;28;20480;-55
2022/05/09 13:06:16;;;;;;;2.90;1.33;;;;;;;;;;5065761;28;20032;-56
2022/05/09 13:08:42;;;;;;;4.05;1.33;;;;;;;;;;5058928;28;20025;-55
2022/05/09 13:11:14;;;;;;;1.52;0.63;;;;;;;;;;5063826;28;20532;-55
2022/05/09 13:13:41;;;;;;;2.65;0.90;;;;;;;;;;5055996;28;20488;-55
2022/05/09 13:16:08;;;;;;;3.47;1.13;;;;;;;;;;5058843;28;20039;-55
2022/05/09 13:18:35;;;;;;;2.88;1.05;;;;;;;;;;5054596;28;20106;-55
2022/05/09 13:21:08;;;;;;;3.90;0.90;;;;;;;;;;5057015;28;20021;-55
2022/05/09 13:23:37;;;;;;;3.20;0.73;;;;;;;;;;5054914;28;20715;-54
2022/05/09 13:26:04;;;;;;;3.00;1.17;;;;;;;;;;5059179;28;20068;-57
2022/05/09 13:28:32;;;;;;;4.13;0.90;;;;;;;;;;5056904;28;20032;-55
2022/05/09 13:30:58;;;;;;;1.75;0.82;;;;;;;;;;5047872;28;20098;-53
2022/05/09 13:33:29;;;;;;;2.50;1.10;;;;;;;;;;5043450;28;20476;-55
2022/05/09 13:35:59;;;;;;;3.53;0.70;;;;;;;;;;5043453;28;20043;-53
2022/05/09 13:38:36;;;;;;;5.40;0.93;;;;;;;;;;5048966;28;20040;-54
2022/05/09 13:41:07;;;;;;;9.15;1.15;;;;;;;;;;5052752;28;20458;-55
2022/05/09 13:43:36;;;;;;;2.90;1.05;;;;;;;;;;5052675;28;20186;-55
2022/05/09 13:46:04;;;;;;;3.47;1.00;;;;;;;;;;5060116;28;20025;-54
2022/05/09 13:48:30;;;;;;;4.75;0.88;;;;;;;;;;5052524;28;20111;-54
2022/05/09 13:50:57;;;;;;;2.50;0.95;;;;;;;;;;5054610;28;20100;-54
2022/05/09 13:53:27;;;;;;;2.35;0.88;;;;;;;;;;5038053;28;20082;-54
2022/05/09 13:55:56;;;;;;;2.33;1.05;;;;;;;;;;5063353;28;20040;-55
2022/05/09 13:58:23;;;;;;;2.55;0.82;;;;;;;;;;5066228;28;20024;-53
2022/05/09 14:00:51;;;;;;;2.17;0.98;;;;;;;;;;5059649;28;20036;-56
2022/05/09 14:03:17;;;;;;;;;;;;;;;;;;5069396;28;20024;-56
2022/05/09 14:05:44;;;;;;;2.97;0.87;;;;;;;;;;5066107;28;20335;-55
2022/05/09 14:08:11;;;;;;;1.40;0.57;;;;;;;;;;5066945;28;20033;-56
2022/05/09 14:10:38;;;;;;;2.10;0.80;;;;;;;;;;5056493;28;20024;-53
2022/05/09 14:13:23;;;;;;;2.17;0.60;;;;;;;;;;5067527;28;20027;-56
2022/05/09 14:15:55;;;;;;;6.43;1.10;;;;;;;;;;5057471;28;20507;-56
2022/05/09 14:18:21;;;;;;;4.30;1.00;;;;;;;;;;5068759;28;20066;-55
2022/05/09 14:20:47;;;;;;;5.60;1.10;;;;;;;;;;5065742;28;20411;-54
2022/05/09 14:23:17;;;;;;;5.50;1.05;;;;;;;;;;5060919;28;20024;-56
2022/05/09 14:31:41;;;;;;;3.88;0.93;;;;;;;;;;5056005;28;20098;-55
2022/05/09 14:34:12;;;;;;;2.17;0.85;;;;;;;;;;5062836;28;20404;-55
2022/05/09 14:36:38;;;;;;;2.50;0.85;;;;;;;;;;5067053;28;20028;-54
2022/05/09 14:39:26;;;;;;;1.08;0.68;;;;;;;;;;5058274;28;20713;-55
2022/05/09 14:42:03;;;;;;;2.65;0.60;;;;;;;;;;5061529;28;20020;-56
2022/05/09 14:44:31;;;;;;;3.40;0.93;;;;;;;;;;5062459;28;20036;-55
2022/05/09 14:47:07;;;;;;;3.42;0.95;;;;;;;;;;5064867;28;20025;-55
2022/05/09 14:49:33;;;;;;;2.47;1.00;;;;;;;;;;5064445;28;20020;-55
2022/05/09 14:52:05;;;;;;;5.50;1.05;;;;;;;;;;5068836;28;20119;-55
2022/05/09 14:54:39;;;;;;;2.97;1.17;;;;;;;;;;5078456;28;20051;-54
2022/05/09 14:59:51;;;;;;;2.05;0.93;;;;;;;;;;5063702;28;20585;-55
2022/05/09 15:02:22;;;;;;;2.15;0.85;;;;;;;;;;5065228;28;20044;-54
2022/05/09 15:04:48;;;;;;;4.43;0.85;;;;;;;;;;5063559;28;20100;-54
2022/05/09 15:07:14;;;;;;;2.78;1.17;;;;;;;;;;5059942;28;20044;-53
2022/05/09 15:09:40;;;;;;;5.20;1.10;;;;;;;;;;5066721;28;20020;-55
2022/05/09 15:12:12;;;;;;;3.53;0.95;;;;;;;;;;5064965;28;20078;-55
2022/05/09 15:14:38;;;;;;;4.27;0.90;;;;;;;;;;5061962;28;20415;-54